Time;durP1;ratioP1;P1;durP2;ratioP2;P2;SDS_P1;SDS_P2;PMS_P1;PMS_P2;Temp;Humidity;BMP_temperature;BMP_pressure;BME280_temperature;BME280_humidity;BME280_pressure;Samples;Min_cycle;Max_cycle;Signal;HPM_P1;HPM_P2
2021/09/03 00:01:07;;;;;;;15.73;9.38;;;;;;;;;;5035746;28;20082;-75
2021/09/03 00:03:33;;;;;;;11.15;6.53;;;;;;;;;;5053259;28;20140;-63
2021/09/03 00:06:00;;;;;;;18.65;9.23;;;;;;;;;;5053388;28;20020;-63
2021/09/03 00:08:26;;;;;;;26.58;8.90;;;;;;;;;;5053674;28;20097;-63
2021/09/03 00:10:52;;;;;;;14.10;8.18;;;;;;;;;;5035607;28;20054;-63
2021/09/03 00:13:18;;;;;;;16.33;8.07;;;;;;;;;;5053610;28;20040;-64
2021/09/03 00:15:45;;;;;;;18.40;8.88;;;;;;;;;;5035739;28;20032;-63
2021/09/03 00:18:11;;;;;;;15.98;8.55;;;;;;;;;;5053408;28;20036;-75
2021/09/03 00:20:37;;;;;;;15.88;8.48;;;;;;;;;;5053087;28;20037;-63
2021/09/03 00:23:03;;;;;;;12.38;7.47;;;;;;;;;;5053163;28;20124;-75
2021/09/03 00:25:29;;;;;;;14.05;8.60;;;;;;;;;;5053107;28;20162;-63
2021/09/03 00:27:55;;;;;;;15.45;8.73;;;;;;;;;;5035480;28;20082;-64
2021/09/03 00:30:21;;;;;;;16.10;8.88;;;;;;;;;;5053187;28;20040;-63
2021/09/03 00:32:47;;;;;;;14.18;8.98;;;;;;;;;;5053184;28;20104;-63
2021/09/03 00:35:13;;;;;;;14.68;8.65;;;;;;;;;;5053065;28;20025;-63
2021/09/03 00:37:39;;;;;;;21.33;9.15;;;;;;;;;;5052936;28;20105;-63
2021/09/03 00:40:07;;;;;;;13.55;8.60;;;;;;;;;;5053094;28;20107;-63
2021/09/03 00:42:33;;;;;;;12.30;7.82;;;;;;;;;;5053161;28;20051;-63
2021/09/03 00:44:59;;;;;;;21.50;9.90;;;;;;;;;;5053082;28;20021;-63
2021/09/03 00:47:26;;;;;;;13.40;8.82;;;;;;;;;;5035173;28;20357;-63
2021/09/03 00:49:52;;;;;;;14.82;8.32;;;;;;;;;;5035259;28;20087;-75
2021/09/03 00:52:18;;;;;;;14.32;8.00;;;;;;;;;;5052902;28;20025;-64
2021/09/03 00:54:44;;;;;;;15.20;8.43;;;;;;;;;;5052736;28;20067;-75
2021/09/03 00:57:10;;;;;;;12.38;8.18;;;;;;;;;;5052950;28;20053;-64
2021/09/03 00:59:36;;;;;;;12.45;8.02;;;;;;;;;;5052765;28;20021;-63
2021/09/03 01:02:02;;;;;;;8.75;6.15;;;;;;;;;;5052841;28;20400;-62
2021/09/03 01:04:28;;;;;;;12.50;7.88;;;;;;;;;;5053140;28;20056;-64
2021/09/03 01:06:55;;;;;;;13.82;9.13;;;;;;;;;;5034837;28;20108;-64
2021/09/03 01:09:20;;;;;;;18.30;9.85;;;;;;;;;;5052776;28;20465;-63
2021/09/03 01:11:47;;;;;;;15.70;9.10;;;;;;;;;;5052768;28;20052;-64
2021/09/03 01:14:13;;;;;;;15.35;7.80;;;;;;;;;;5053914;28;20021;-64
2021/09/03 01:16:39;;;;;;;14.10;8.18;;;;;;;;;;5038879;28;20056;-73
2021/09/03 01:19:06;;;;;;;9.73;6.07;;;;;;;;;;5056710;28;20101;-64
2021/09/03 01:21:33;;;;;;;16.02;7.13;;;;;;;;;;5056469;28;20546;-63
2021/09/03 01:23:59;;;;;;;16.27;8.70;;;;;;;;;;5056714;28;20024;-63
2021/09/03 01:26:26;;;;;;;14.63;8.90;;;;;;;;;;5056731;28;20056;-69
2021/09/03 01:28:52;;;;;;;10.73;6.88;;;;;;;;;;5056534;28;20098;-75
2021/09/03 01:31:18;;;;;;;14.07;8.75;;;;;;;;;;5038646;28;20068;-64
2021/09/03 01:33:44;;;;;;;16.58;9.05;;;;;;;;;;5056385;28;20037;-64
2021/09/03 01:36:10;;;;;;;12.30;8.38;;;;;;;;;;5056452;28;20070;-64
2021/09/03 01:38:37;;;;;;;11.98;8.43;;;;;;;;;;5038389;28;20021;-63
2021/09/03 01:41:03;;;;;;;16.55;9.32;;;;;;;;;;5056213;28;20029;-74
2021/09/03 01:43:29;;;;;;;13.98;8.95;;;;;;;;;;5056312;28;20028;-63
2021/09/03 01:45:55;;;;;;;16.90;10.00;;;;;;;;;;5056399;28;20037;-63
2021/09/03 01:48:21;;;;;;;11.07;7.30;;;;;;;;;;5056227;28;20025;-73
2021/09/03 01:50:47;;;;;;;15.95;9.10;;;;;;;;;;5056213;28;20063;-63
2021/09/03 01:53:13;;;;;;;13.18;7.65;;;;;;;;;;5056190;28;20025;-74
2021/09/03 01:55:39;;;;;;;14.68;7.75;;;;;;;;;;5056185;28;20028;-63
2021/09/03 01:58:05;;;;;;;11.75;7.53;;;;;;;;;;5056032;28;20048;-65
2021/09/03 02:00:31;;;;;;;11.40;7.50;;;;;;;;;;5056135;28;20021;-63
2021/09/03 02:02:57;;;;;;;14.60;8.35;;;;;;;;;;5056051;28;20029;-63
2021/09/03 02:05:23;;;;;;;15.35;10.02;;;;;;;;;;5056088;28;20445;-64
2021/09/03 02:07:49;;;;;;;15.55;9.18;;;;;;;;;;5055876;28;20025;-63
2021/09/03 02:10:15;;;;;;;13.45;8.60;;;;;;;;;;5037909;28;20090;-63
2021/09/03 02:12:41;;;;;;;14.60;9.15;;;;;;;;;;5055929;28;20036;-63
2021/09/03 02:15:07;;;;;;;12.82;7.25;;;;;;;;;;5055705;28;20067;-63
2021/09/03 02:17:33;;;;;;;13.48;7.65;;;;;;;;;;5055682;28;20441;-63
2021/09/03 02:19:59;;;;;;;13.15;8.25;;;;;;;;;;5055578;28;20468;-63
2021/09/03 02:22:25;;;;;;;6.32;5.20;;;;;;;;;;5055443;28;20114;-65
2021/09/03 02:24:51;;;;;;;10.05;6.40;;;;;;;;;;5054856;28;20108;-74
2021/09/03 02:27:17;;;;;;;17.35;7.82;;;;;;;;;;5055362;28;20036;-63
2021/09/03 02:29:43;;;;;;;13.93;8.50;;;;;;;;;;5055733;28;20056;-73
2021/09/03 02:32:09;;;;;;;14.23;8.50;;;;;;;;;;5037528;28;20037;-63
2021/09/03 02:34:35;;;;;;;13.77;8.77;;;;;;;;;;5055524;28;20473;-66
2021/09/03 02:37:01;;;;;;;11.90;7.53;;;;;;;;;;5037206;28;20029;-63
2021/09/03 02:39:27;;;;;;;13.85;7.28;;;;;;;;;;5037442;28;20054;-64
2021/09/03 02:41:53;;;;;;;11.95;8.38;;;;;;;;;;5055384;28;20330;-63
2021/09/03 02:44:19;;;;;;;12.68;8.27;;;;;;;;;;5055397;28;20036;-63
2021/09/03 02:46:45;;;;;;;14.52;8.63;;;;;;;;;;5055196;28;20035;-63
2021/09/03 02:49:11;;;;;;;8.98;6.28;;;;;;;;;;5055099;28;20029;-64
2021/09/03 02:51:37;;;;;;;9.63;6.22;;;;;;;;;;5054913;28;20037;-63
2021/09/03 02:54:03;;;;;;;7.88;5.53;;;;;;;;;;5054690;28;20107;-63
2021/09/03 02:56:29;;;;;;;12.18;7.20;;;;;;;;;;5055045;28;20021;-63
2021/09/03 02:58:55;;;;;;;6.60;5.32;;;;;;;;;;5054983;28;20031;-63
2021/09/03 03:01:21;;;;;;;10.07;6.20;;;;;;;;;;5054775;28;20021;-63
2021/09/03 03:03:47;;;;;;;9.05;5.50;;;;;;;;;;5054994;28;20439;-63
2021/09/03 03:06:13;;;;;;;11.27;8.07;;;;;;;;;;5054751;28;20025;-63
2021/09/03 03:08:39;;;;;;;8.02;6.30;;;;;;;;;;5054555;28;20029;-63
2021/09/03 03:11:05;;;;;;;12.93;8.52;;;;;;;;;;5054900;28;20106;-63
2021/09/03 03:13:31;;;;;;;7.53;5.40;;;;;;;;;;5054600;28;20044;-63
2021/09/03 03:15:57;;;;;;;15.07;7.30;;;;;;;;;;5054674;28;20032;-68
2021/09/03 03:18:23;;;;;;;10.18;7.15;;;;;;;;;;5054536;28;20017;-63
2021/09/03 03:20:49;;;;;;;8.63;5.82;;;;;;;;;;5054714;28;20144;-73
2021/09/03 03:23:16;;;;;;;14.27;8.05;;;;;;;;;;5054341;28;20039;-63
2021/09/03 03:25:42;;;;;;;9.20;6.65;;;;;;;;;;5054362;28;20112;-63
2021/09/03 03:28:08;;;;;;;10.48;7.28;;;;;;;;;;5054401;28;20108;-63
2021/09/03 03:30:34;;;;;;;11.60;7.03;;;;;;;;;;5054334;28;20029;-63
2021/09/03 03:33:00;;;;;;;7.20;5.45;;;;;;;;;;5054342;28;20025;-63
2021/09/03 03:35:27;;;;;;;9.95;6.78;;;;;;;;;;5054248;28;20025;-63
2021/09/03 03:37:53;;;;;;;8.55;6.03;;;;;;;;;;5053256;28;20036;-63
2021/09/03 03:40:19;;;;;;;8.32;5.97;;;;;;;;;;5036130;28;20032;-68
2021/09/03 03:42:45;;;;;;;9.63;5.55;;;;;;;;;;5054133;28;20029;-63
2021/09/03 03:45:11;;;;;;;7.20;5.43;;;;;;;;;;5054020;28;20032;-63
2021/09/03 03:47:37;;;;;;;7.53;5.05;;;;;;;;;;5054195;28;20083;-63
2021/09/03 03:50:04;;;;;;;8.45;5.80;;;;;;;;;;5053904;28;20037;-63
2021/09/03 03:52:30;;;;;;;8.93;6.97;;;;;;;;;;5054096;28;20036;-76
2021/09/03 03:54:56;;;;;;;11.40;7.85;;;;;;;;;;5053467;28;20017;-64
2021/09/03 03:57:22;;;;;;;9.77;6.10;;;;;;;;;;5036109;28;20029;-74
2021/09/03 03:59:48;;;;;;;11.82;8.15;;;;;;;;;;5053857;28;20082;-63
2021/09/03 04:02:14;;;;;;;8.60;6.18;;;;;;;;;;5053867;28;20024;-63
2021/09/03 04:04:40;;;;;;;6.70;4.80;;;;;;;;;;5035813;28;20496;-63
2021/09/03 04:07:06;;;;;;;8.07;6.10;;;;;;;;;;5053356;28;20027;-63
2021/09/03 04:09:32;;;;;;;8.00;5.50;;;;;;;;;;5053550;28;20112;-63
2021/09/03 04:11:58;;;;;;;9.68;6.80;;;;;;;;;;5053750;28;20133;-62
2021/09/03 04:14:24;;;;;;;7.85;4.72;;;;;;;;;;5053827;28;20104;-63
2021/09/03 04:16:50;;;;;;;6.38;5.68;;;;;;;;;;5053443;28;20079;-63
2021/09/03 04:19:16;;;;;;;10.90;6.65;;;;;;;;;;5053116;28;20082;-64
2021/09/03 04:21:42;;;;;;;10.70;6.97;;;;;;;;;;5053372;28;20052;-64
2021/09/03 04:24:08;;;;;;;6.95;4.85;;;;;;;;;;5053316;28;20029;-63
2021/09/03 04:26:35;;;;;;;6.78;5.15;;;;;;;;;;5053173;28;20036;-63
2021/09/03 04:29:01;;;;;;;6.93;5.35;;;;;;;;;;5035283;28;20021;-63
2021/09/03 04:31:27;;;;;;;6.53;4.63;;;;;;;;;;5053315;28;20368;-63
2021/09/03 04:33:53;;;;;;;4.75;4.22;;;;;;;;;;5053106;28;20032;-74
2021/09/03 04:36:18;;;;;;;7.32;5.70;;;;;;;;;;5052965;28;20496;-63
2021/09/03 04:38:44;;;;;;;6.93;5.45;;;;;;;;;;5035257;28;20022;-73
2021/09/03 04:41:10;;;;;;;7.63;5.68;;;;;;;;;;5052714;28;20025;-64
2021/09/03 04:43:36;;;;;;;8.80;5.05;;;;;;;;;;5053179;28;20104;-63
2021/09/03 04:46:02;;;;;;;6.15;4.93;;;;;;;;;;5053005;28;20109;-63
2021/09/03 04:48:28;;;;;;;9.13;5.57;;;;;;;;;;5052834;28;20025;-63
2021/09/03 04:50:54;;;;;;;6.65;5.05;;;;;;;;;;5035015;28;20040;-63
2021/09/03 04:53:20;;;;;;;4.95;4.18;;;;;;;;;;5052809;28;20017;-63
2021/09/03 04:55:46;;;;;;;6.15;4.53;;;;;;;;;;5052650;28;20518;-73
2021/09/03 04:58:12;;;;;;;5.38;4.20;;;;;;;;;;5052997;28;20056;-73
2021/09/03 05:00:38;;;;;;;7.90;5.57;;;;;;;;;;5035054;28;20377;-64
2021/09/03 05:03:04;;;;;;;6.57;5.30;;;;;;;;;;5052919;28;20036;-63
2021/09/03 05:05:30;;;;;;;7.82;5.47;;;;;;;;;;5052802;28;20028;-63
2021/09/03 05:07:56;;;;;;;8.52;6.43;;;;;;;;;;5052898;28;20360;-62
2021/09/03 05:10:22;;;;;;;6.38;4.55;;;;;;;;;;5052809;28;20518;-73
2021/09/03 05:12:48;;;;;;;9.93;5.85;;;;;;;;;;5035051;28;20025;-63
2021/09/03 05:15:16;;;;;;;9.57;5.63;;;;;;;;;;5052682;28;20029;-63
2021/09/03 05:17:43;;;;;;;8.18;5.55;;;;;;;;;;5052932;28;20029;-70
2021/09/03 05:20:11;;;;;;;8.93;6.50;;;;;;;;;;5052689;28;20403;-74
2021/09/03 05:22:37;;;;;;;6.10;4.82;;;;;;;;;;5034637;28;20056;-63
2021/09/03 05:25:03;;;;;;;9.18;6.57;;;;;;;;;;5052457;28;20094;-63
2021/09/03 05:27:29;;;;;;;9.63;7.32;;;;;;;;;;5052347;28;20108;-63
2021/09/03 05:29:55;;;;;;;5.70;4.75;;;;;;;;;;5052588;28;20108;-63
2021/09/03 05:32:21;;;;;;;7.32;5.28;;;;;;;;;;5052534;28;20036;-63
2021/09/03 05:34:48;;;;;;;7.25;4.70;;;;;;;;;;5034731;28;20036;-63
2021/09/03 05:37:14;;;;;;;6.10;4.38;;;;;;;;;;5052220;28;20032;-63
2021/09/03 05:39:40;;;;;;;5.50;4.82;;;;;;;;;;5052820;28;20029;-63
2021/09/03 05:42:06;;;;;;;7.32;4.90;;;;;;;;;;5052569;28;20022;-63
2021/09/03 05:44:32;;;;;;;8.27;4.95;;;;;;;;;;5052422;28;20389;-63
2021/09/03 05:46:58;;;;;;;5.07;4.10;;;;;;;;;;5052480;28;20025;-74
2021/09/03 05:49:24;;;;;;;5.38;4.70;;;;;;;;;;5052547;28;20394;-63
2021/09/03 05:51:50;;;;;;;6.63;4.75;;;;;;;;;;5052219;28;20035;-64
2021/09/03 05:54:16;;;;;;;6.07;4.57;;;;;;;;;;5052423;28;20031;-63
2021/09/03 05:56:42;;;;;;;6.03;4.28;;;;;;;;;;5052210;28;20036;-63
2021/09/03 05:59:08;;;;;;;8.02;4.45;;;;;;;;;;5034604;28;20345;-63
2021/09/03 06:01:34;;;;;;;5.70;4.35;;;;;;;;;;5055342;28;20021;-63
2021/09/03 06:04:00;;;;;;;7.18;4.45;;;;;;;;;;5056214;28;20495;-63
2021/09/03 06:06:26;;;;;;;7.50;4.97;;;;;;;;;;5055916;28;20035;-63
2021/09/03 06:08:52;;;;;;;4.95;4.35;;;;;;;;;;5056093;28;20401;-63
2021/09/03 06:11:24;;;;;;;5.20;4.70;;;;;;;;;;5055713;28;20040;-64
2021/09/03 06:13:50;;;;;;;4.82;4.32;;;;;;;;;;5055894;28;20067;-64
2021/09/03 06:16:16;;;;;;;5.00;3.97;;;;;;;;;;5037904;28;20372;-67
2021/09/03 06:18:43;;;;;;;6.45;4.35;;;;;;;;;;5055639;28;20029;-64
2021/09/03 06:21:09;;;;;;;4.53;3.80;;;;;;;;;;5055432;28;20045;-69
2021/09/03 06:23:35;;;;;;;6.05;4.00;;;;;;;;;;5037667;28;20342;-63
2021/09/03 06:26:01;;;;;;;8.77;4.93;;;;;;;;;;5055651;28;20036;-64
2021/09/03 06:28:27;;;;;;;12.45;7.97;;;;;;;;;;5055949;28;20064;-63
2021/09/03 06:30:53;;;;;;;8.35;5.10;;;;;;;;;;5055842;28;20029;-64
2021/09/03 06:33:19;;;;;;;5.90;4.78;;;;;;;;;;5055497;28;20056;-64
2021/09/03 06:35:45;;;;;;;6.57;4.50;;;;;;;;;;5055431;28;20032;-71
2021/09/03 06:38:11;;;;;;;6.63;4.22;;;;;;;;;;5055418;28;20021;-64
2021/09/03 06:40:37;;;;;;;7.47;5.05;;;;;;;;;;5055383;28;20040;-67
2021/09/03 06:43:03;;;;;;;5.00;4.22;;;;;;;;;;5055210;28;20029;-75
2021/09/03 06:45:29;;;;;;;5.75;4.13;;;;;;;;;;5037483;28;20108;-74
2021/09/03 06:47:55;;;;;;;4.07;3.67;;;;;;;;;;5055283;28;20029;-74
2021/09/03 06:50:21;;;;;;;4.72;4.00;;;;;;;;;;5055012;28;20048;-63
2021/09/03 06:52:48;;;;;;;4.30;3.70;;;;;;;;;;5037138;28;20040;-64
2021/09/03 06:55:15;;;;;;;5.00;4.20;;;;;;;;;;5055025;28;20024;-64
2021/09/03 06:57:42;;;;;;;4.22;3.83;;;;;;;;;;5055041;28;20021;-74
2021/09/03 07:00:08;;;;;;;3.95;3.55;;;;;;;;;;5055225;28;20040;-64
2021/09/03 07:02:34;;;;;;;5.60;3.75;;;;;;;;;;5054957;28;20381;-64
2021/09/03 07:05:00;;;;;;;7.53;4.07;;;;;;;;;;5055043;28;20025;-64
2021/09/03 07:07:26;;;;;;;6.28;3.85;;;;;;;;;;5055131;28;20071;-75
2021/09/03 07:09:56;;;;;;;4.90;3.60;;;;;;;;;;5054616;28;20029;-64
2021/09/03 07:12:22;;;;;;;4.28;3.85;;;;;;;;;;5036802;28;20457;-75
2021/09/03 07:14:48;;;;;;;4.88;3.90;;;;;;;;;;5054883;28;20496;-64
2021/09/03 07:17:14;;;;;;;4.28;3.88;;;;;;;;;;5037002;28;20056;-64
2021/09/03 07:19:40;;;;;;;5.22;4.07;;;;;;;;;;5036650;28;20017;-64
2021/09/03 07:22:07;;;;;;;5.70;4.18;;;;;;;;;;5054416;28;20542;-64
2021/09/03 07:24:33;;;;;;;4.15;3.72;;;;;;;;;;5036610;28;20078;-75
2021/09/03 07:26:59;;;;;;;4.03;3.60;;;;;;;;;;5054387;28;20029;-65
2021/09/03 07:29:25;;;;;;;5.25;3.75;;;;;;;;;;5036714;28;20059;-64
2021/09/03 07:31:52;;;;;;;5.80;4.00;;;;;;;;;;5054171;28;20060;-64
2021/09/03 07:34:17;;;;;;;4.80;3.90;;;;;;;;;;5054276;28;20029;-66
2021/09/03 07:36:43;;;;;;;5.78;4.20;;;;;;;;;;5036284;28;20377;-64
2021/09/03 07:39:09;;;;;;;6.40;4.40;;;;;;;;;;5054295;28;20017;-64
2021/09/03 07:41:35;;;;;;;5.38;3.92;;;;;;;;;;5036210;28;20342;-63
2021/09/03 07:44:01;;;;;;;6.43;4.45;;;;;;;;;;5054406;28;20028;-64
2021/09/03 07:46:27;;;;;;;6.88;4.22;;;;;;;;;;5054167;28;20166;-65
2021/09/03 07:48:53;;;;;;;8.20;4.55;;;;;;;;;;5054412;28;20090;-64
2021/09/03 07:51:19;;;;;;;6.85;4.47;;;;;;;;;;5053723;28;20415;-64
2021/09/03 07:53:45;;;;;;;9.80;4.72;;;;;;;;;;5054042;28;20017;-64
2021/09/03 07:56:11;;;;;;;6.90;4.47;;;;;;;;;;5054028;28;20376;-64
2021/09/03 07:58:37;;;;;;;7.38;4.82;;;;;;;;;;5054066;28;20024;-63
2021/09/03 08:01:04;;;;;;;6.25;4.05;;;;;;;;;;5035958;28;20033;-74
2021/09/03 08:03:30;;;;;;;6.03;4.25;;;;;;;;;;5053753;28;20021;-64
2021/09/03 08:05:57;;;;;;;9.40;4.90;;;;;;;;;;5053824;28;20029;-68
2021/09/03 08:08:23;;;;;;;8.05;5.40;;;;;;;;;;5053694;28;20029;-65
2021/09/03 08:10:49;;;;;;;8.82;5.38;;;;;;;;;;5053735;28;20031;-64
2021/09/03 08:13:15;;;;;;;6.40;5.10;;;;;;;;;;5053572;28;20108;-64
2021/09/03 08:15:41;;;;;;;6.85;4.70;;;;;;;;;;5053624;28;20023;-64
2021/09/03 08:18:07;;;;;;;8.32;4.57;;;;;;;;;;5053361;28;20079;-63
2021/09/03 08:20:33;;;;;;;6.95;4.78;;;;;;;;;;5056074;28;20084;-64
2021/09/03 08:23:00;;;;;;;8.60;5.60;;;;;;;;;;5072902;28;20107;-75
2021/09/03 08:25:26;;;;;;;9.07;5.88;;;;;;;;;;5073351;28;20439;-70
2021/09/03 08:27:53;;;;;;;11.07;5.97;;;;;;;;;;5073520;28;20020;-70
2021/09/03 08:30:19;;;;;;;8.65;5.07;;;;;;;;;;5073264;28;20025;-76
2021/09/03 08:32:46;;;;;;;10.13;5.10;;;;;;;;;;5055553;28;20028;-77
2021/09/03 08:35:11;;;;;;;10.45;4.90;;;;;;;;;;5073375;28;20029;-76
2021/09/03 08:37:39;;;;;;;7.97;5.53;;;;;;;;;;5073092;28;20035;-76
2021/09/03 08:40:06;;;;;;;11.43;6.28;;;;;;;;;;5073222;28;20021;-63
2021/09/03 08:42:32;;;;;;;11.27;6.10;;;;;;;;;;5073031;28;20033;-64
2021/09/03 08:44:59;;;;;;;10.15;5.50;;;;;;;;;;5055067;28;20028;-65
2021/09/03 08:47:25;;;;;;;10.90;5.65;;;;;;;;;;5073140;28;20044;-76
2021/09/03 08:49:51;;;;;;;8.70;5.45;;;;;;;;;;5072895;28;20099;-64
2021/09/03 08:52:18;;;;;;;10.93;6.40;;;;;;;;;;5072990;28;20499;-64
2021/09/03 08:54:45;;;;;;;13.30;6.30;;;;;;;;;;5073024;28;20109;-76
2021/09/03 08:57:12;;;;;;;10.23;6.22;;;;;;;;;;5072854;28;20036;-66
2021/09/03 08:59:38;;;;;;;10.65;6.10;;;;;;;;;;5073034;28;20028;-75
2021/09/03 09:02:11;;;;;;;9.13;6.10;;;;;;;;;;5072963;28;20047;-63
2021/09/03 09:04:41;;;;;;;10.60;6.30;;;;;;;;;;5072793;28;20024;-75
2021/09/03 09:07:07;;;;;;;11.88;6.70;;;;;;;;;;5054898;28;20115;-64
2021/09/03 09:09:38;;;;;;;15.02;6.22;;;;;;;;;;5073050;28;20036;-65
2021/09/03 09:12:11;;;;;;;16.92;6.20;;;;;;;;;;5072902;28;20480;-63
2021/09/03 09:14:56;;;;;;;11.30;6.07;;;;;;;;;;5072653;28;20017;-64
2021/09/03 09:17:29;;;;;;;15.15;6.57;;;;;;;;;;5072728;28;20025;-64
2021/09/03 09:19:55;;;;;;;13.07;6.05;;;;;;;;;;5072654;28;20023;-64
2021/09/03 09:22:20;;;;;;;13.10;6.53;;;;;;;;;;5054680;28;20044;-66
2021/09/03 09:24:47;;;;;;;9.60;6.18;;;;;;;;;;5072752;28;20043;-67
2021/09/03 09:27:23;;;;;;;12.57;6.70;;;;;;;;;;5072581;28;20082;-64
2021/09/03 09:29:49;;;;;;;11.85;5.57;;;;;;;;;;5072666;28;20036;-72
2021/09/03 09:32:15;;;;;;;11.18;6.90;;;;;;;;;;5072446;28;20032;-66
2021/09/03 09:34:43;;;;;;;10.85;5.63;;;;;;;;;;5072894;28;20020;-64
2021/09/03 09:37:11;;;;;;;15.02;6.05;;;;;;;;;;5076559;28;20024;-64
2021/09/03 09:39:41;;;;;;;11.48;6.40;;;;;;;;;;5076589;28;20017;-66
2021/09/03 09:42:07;;;;;;;13.90;6.60;;;;;;;;;;5076448;28;20029;-65
2021/09/03 09:44:35;;;;;;;11.20;6.40;;;;;;;;;;5076347;28;20031;-65
2021/09/03 09:47:08;;;;;;;11.68;5.72;;;;;;;;;;5076564;28;20476;-64
2021/09/03 09:49:34;;;;;;;13.13;6.57;;;;;;;;;;5058316;28;20024;-65
2021/09/03 09:52:01;;;;;;;12.68;6.70;;;;;;;;;;5076302;28;20472;-64
2021/09/03 09:54:27;;;;;;;10.50;5.38;;;;;;;;;;5076123;28;20033;-65
2021/09/03 09:56:54;;;;;;;10.63;5.88;;;;;;;;;;5076326;28;20056;-66
2021/09/03 09:59:21;;;;;;;13.98;6.43;;;;;;;;;;5076037;28;20025;-75
2021/09/03 10:01:48;;;;;;;16.38;6.57;;;;;;;;;;5076263;28;20056;-72
2021/09/03 10:04:15;;;;;;;8.20;5.57;;;;;;;;;;5076145;28;20137;-64
2021/09/03 10:06:42;;;;;;;12.32;6.45;;;;;;;;;;5075981;28;20020;-67
2021/09/03 10:09:10;;;;;;;12.27;6.28;;;;;;;;;;5076088;28;20452;-65
2021/09/03 10:11:37;;;;;;;13.25;6.32;;;;;;;;;;5076199;28;20544;-64
2021/09/03 10:14:04;;;;;;;12.18;5.75;;;;;;;;;;5076164;28;20062;-64
2021/09/03 10:16:30;;;;;;;13.75;6.72;;;;;;;;;;5075844;28;20025;-71
2021/09/03 10:18:57;;;;;;;11.65;6.38;;;;;;;;;;5075852;28;20031;-65
2021/09/03 10:21:25;;;;;;;11.63;6.13;;;;;;;;;;5075557;28;20045;-68
2021/09/03 10:23:56;;;;;;;12.80;6.25;;;;;;;;;;5075711;28;20442;-64
2021/09/03 10:26:27;;;;;;;11.43;6.17;;;;;;;;;;5075762;28;20460;-64
2021/09/03 10:29:11;;;;;;;13.65;6.13;;;;;;;;;;5075782;28;20257;-63
2021/09/03 10:31:57;;;;;;;14.43;6.25;;;;;;;;;;5075562;28;20032;-64
2021/09/03 10:34:44;;;;;;;13.57;6.75;;;;;;;;;;5075334;28;20035;-64
2021/09/03 10:37:16;;;;;;;10.52;6.45;;;;;;;;;;5067207;28;20036;-77
2021/09/03 10:39:45;;;;;;;13.48;6.78;;;;;;;;;;5037804;28;20021;-64
2021/09/03 10:42:12;;;;;;;10.93;6.05;;;;;;;;;;5055395;28;20025;-64
2021/09/03 10:44:56;;;;;;;15.50;7.28;;;;;;;;;;5055532;28;20021;-64
2021/09/03 10:47:31;;;;;;;13.32;6.57;;;;;;;;;;5054708;28;20543;-65
2021/09/03 10:49:57;;;;;;;14.18;7.25;;;;;;;;;;5055253;28;20029;-65
2021/09/03 10:52:23;;;;;;;10.65;5.80;;;;;;;;;;5055096;28;20059;-64
2021/09/03 10:54:49;;;;;;;13.90;6.47;;;;;;;;;;5055056;28;20068;-76
2021/09/03 10:57:16;;;;;;;11.80;6.50;;;;;;;;;;5055100;28;20061;-64
2021/09/03 11:00:01;;;;;;;12.60;7.00;;;;;;;;;;5054912;28;20083;-65
2021/09/03 11:02:27;;;;;;;12.90;6.53;;;;;;;;;;5054846;28;20025;-65
2021/09/03 11:05:09;;;;;;;13.93;6.95;;;;;;;;;;5037150;28;20033;-75
2021/09/03 11:07:41;;;;;;;13.02;7.03;;;;;;;;;;5055019;28;20025;-66
2021/09/03 11:10:16;;;;;;;16.40;6.88;;;;;;;;;;5037100;28;20025;-64
2021/09/03 11:12:47;;;;;;;17.77;7.55;;;;;;;;;;5054884;28;20392;-68
2021/09/03 11:15:14;;;;;;;11.60;7.05;;;;;;;;;;5036756;28;20028;-64
2021/09/03 11:17:40;;;;;;;11.73;6.57;;;;;;;;;;5054586;28;20029;-64
2021/09/03 11:20:06;;;;;;;14.25;7.47;;;;;;;;;;5054823;28;20016;-63
2021/09/03 11:22:36;;;;;;;14.60;7.95;;;;;;;;;;5054408;28;20044;-64
2021/09/03 11:25:06;;;;;;;12.95;8.02;;;;;;;;;;5054371;28;20481;-64
2021/09/03 11:27:33;;;;;;;12.38;6.65;;;;;;;;;;5054632;28;20116;-64
2021/09/03 11:30:03;;;;;;;14.40;6.53;;;;;;;;;;5054507;28;20025;-74
2021/09/03 11:32:36;;;;;;;16.20;7.40;;;;;;;;;;5054396;28;20056;-64
2021/09/03 11:35:02;;;;;;;14.35;7.25;;;;;;;;;;5054431;28;20029;-68
2021/09/03 11:37:28;;;;;;;16.27;7.40;;;;;;;;;;5054543;28;20352;-64
2021/09/03 11:40:12;;;;;;;12.32;7.47;;;;;;;;;;5054402;28;20053;-64
2021/09/03 11:43:01;;;;;;;10.43;6.45;;;;;;;;;;5054460;28;20032;-64
2021/09/03 11:45:27;;;;;;;18.40;7.80;;;;;;;;;;5049124;28;20127;-65
2021/09/03 11:47:57;;;;;;;16.13;7.57;;;;;;;;;;5054043;28;20108;-64
2021/09/03 11:50:34;;;;;;;16.80;7.95;;;;;;;;;;5054025;28;20461;-65
2021/09/03 11:53:00;;;;;;;12.45;6.82;;;;;;;;;;5054200;28;20029;-69
2021/09/03 11:55:27;;;;;;;11.38;6.70;;;;;;;;;;5053840;28;20029;-64
2021/09/03 11:57:54;;;;;;;13.05;7.13;;;;;;;;;;5053335;28;20036;-64
2021/09/03 12:00:24;;;;;;;12.60;7.30;;;;;;;;;;5053895;28;20025;-63
2021/09/03 12:02:50;;;;;;;14.20;7.13;;;;;;;;;;5035870;28;20375;-65
2021/09/03 12:05:20;;;;;;;13.38;7.32;;;;;;;;;;5053860;28;20029;-64
2021/09/03 12:08:26;;;;;;;13.85;7.47;;;;;;;;;;5053763;28;20021;-64
2021/09/03 12:10:53;;;;;;;14.20;7.43;;;;;;;;;;4995421;28;20038;-64
2021/09/03 12:13:20;;;;;;;13.18;7.40;;;;;;;;;;5011837;28;20053;-64
2021/09/03 12:15:47;;;;;;;11.95;7.13;;;;;;;;;;5032412;28;20044;-64
2021/09/03 12:18:19;;;;;;;15.65;8.07;;;;;;;;;;5053415;28;20031;-68
2021/09/03 12:20:53;;;;;;;10.23;6.53;;;;;;;;;;5052920;28;20044;-64
2021/09/03 12:23:19;;;;;;;13.98;7.18;;;;;;;;;;5053502;28;20056;-75
2021/09/03 12:25:45;;;;;;;12.35;6.78;;;;;;;;;;5053434;28;20116;-64
2021/09/03 12:28:12;;;;;;;10.32;6.93;;;;;;;;;;5053481;28;20146;-75
2021/09/03 12:30:39;;;;;;;14.52;7.22;;;;;;;;;;5053370;28;20106;-64
2021/09/03 12:33:25;;;;;;;12.65;7.07;;;;;;;;;;5053334;28;20025;-64
2021/09/03 12:35:52;;;;;;;15.48;7.80;;;;;;;;;;5053169;28;20037;-67
2021/09/03 12:38:28;;;;;;;14.93;7.35;;;;;;;;;;5035270;28;20025;-65
2021/09/03 12:41:07;;;;;;;14.35;7.15;;;;;;;;;;5053035;28;20021;-68
2021/09/03 12:43:33;;;;;;;13.77;7.28;;;;;;;;;;5053083;28;20029;-76
2021/09/03 12:46:06;;;;;;;10.23;6.85;;;;;;;;;;5053102;28;20020;-64
2021/09/03 12:48:32;;;;;;;;;;;;;;;;;;5053843;28;20021;-76
2021/09/03 12:50:58;;;;;;;11.30;6.70;;;;;;;;;;5052862;28;19909;-67
2021/09/03 12:53:24;;;;;;;12.15;7.18;;;;;;;;;;5052771;28;20429;-63
2021/09/03 12:55:52;;;;;;;14.52;7.78;;;;;;;;;;5053010;28;20024;-64
2021/09/03 12:58:18;;;;;;;13.43;7.00;;;;;;;;;;5052918;28;20057;-63
2021/09/03 13:00:44;;;;;;;12.43;7.25;;;;;;;;;;5035021;28;20135;-64
2021/09/03 13:03:10;;;;;;;15.07;7.38;;;;;;;;;;5052782;28;20033;-64
2021/09/03 13:05:38;;;;;;;10.27;6.60;;;;;;;;;;5052933;28;20044;-64
2021/09/03 13:08:04;;;;;;;11.52;6.63;;;;;;;;;;5052953;28;20045;-63
2021/09/03 13:10:30;;;;;;;10.27;7.05;;;;;;;;;;5034697;28;20035;-64
2021/09/03 13:12:56;;;;;;;12.77;7.22;;;;;;;;;;5034957;28;20025;-76
2021/09/03 13:15:22;;;;;;;11.55;6.85;;;;;;;;;;5052727;28;20037;-66
2021/09/03 13:17:49;;;;;;;10.82;7.13;;;;;;;;;;5052943;28;20021;-64
2021/09/03 13:20:15;;;;;;;13.25;7.28;;;;;;;;;;5052871;28;20017;-64
2021/09/03 13:22:41;;;;;;;15.18;7.72;;;;;;;;;;5070754;28;20052;-76
2021/09/03 13:25:07;;;;;;;12.77;6.70;;;;;;;;;;5072746;28;20110;-64
2021/09/03 13:27:33;;;;;;;12.90;7.57;;;;;;;;;;5072974;28;20104;-64
2021/09/03 13:29:59;;;;;;;9.65;6.50;;;;;;;;;;5072710;28;20028;-64
2021/09/03 13:32:26;;;;;;;11.43;6.55;;;;;;;;;;5072470;28;20063;-75
2021/09/03 13:34:52;;;;;;;14.02;6.68;;;;;;;;;;5054951;28;20025;-77
2021/09/03 13:37:19;;;;;;;15.60;6.80;;;;;;;;;;5072316;28;20090;-65
2021/09/03 13:39:46;;;;;;;12.55;6.95;;;;;;;;;;5054637;28;20028;-64
2021/09/03 13:42:12;;;;;;;13.95;6.90;;;;;;;;;;5054690;28;20430;-64
2021/09/03 13:44:38;;;;;;;9.93;6.95;;;;;;;;;;5072602;28;20051;-64
2021/09/03 13:47:04;;;;;;;11.77;6.90;;;;;;;;;;5072374;28;20079;-64
2021/09/03 13:49:30;;;;;;;13.05;6.80;;;;;;;;;;5072788;28;20020;-64
2021/09/03 13:51:57;;;;;;;14.68;7.32;;;;;;;;;;5072402;28;20116;-64
2021/09/03 13:54:23;;;;;;;11.88;6.65;;;;;;;;;;5072718;28;20457;-66
2021/09/03 13:56:49;;;;;;;13.18;6.88;;;;;;;;;;5072244;28;20070;-72
2021/09/03 13:59:15;;;;;;;17.55;8.35;;;;;;;;;;5072208;28;20024;-63
2021/09/03 14:01:41;;;;;;;12.90;7.18;;;;;;;;;;5072388;28;20085;-64
2021/09/03 14:04:07;;;;;;;12.75;7.28;;;;;;;;;;5072455;28;20024;-64
2021/09/03 14:06:37;;;;;;;13.45;7.38;;;;;;;;;;5072294;28;20077;-73
2021/09/03 14:09:04;;;;;;;14.68;7.75;;;;;;;;;;5072228;28;20055;-64
2021/09/03 14:11:30;;;;;;;15.05;7.65;;;;;;;;;;5072275;28;20069;-64
2021/09/03 14:13:56;;;;;;;13.45;6.70;;;;;;;;;;5072332;28;20016;-75
2021/09/03 14:16:22;;;;;;;13.88;7.43;;;;;;;;;;5072082;28;20028;-64
2021/09/03 14:18:48;;;;;;;11.32;6.72;;;;;;;;;;5054149;28;20368;-64
2021/09/03 14:21:15;;;;;;;13.60;6.60;;;;;;;;;;5073052;28;20052;-68
2021/09/03 14:23:41;;;;;;;12.35;6.95;;;;;;;;;;5075646;28;20025;-64
2021/09/03 14:26:10;;;;;;;11.50;7.05;;;;;;;;;;5075838;28;20017;-65
2021/09/03 14:28:36;;;;;;;16.80;6.97;;;;;;;;;;5075627;28;20369;-64
2021/09/03 14:31:02;;;;;;;15.23;7.30;;;;;;;;;;5075216;28;20173;-64
2021/09/03 14:33:28;;;;;;;12.77;7.05;;;;;;;;;;5075470;28;20056;-64
2021/09/03 14:35:54;;;;;;;14.32;7.43;;;;;;;;;;5075709;28;20036;-64